Hovedside
METAR-TAF:

METAR-TAF

Lufthavner :

Tasjkent, Usbekistan

Tasjkent internasjonale lufthavn

breddegrad: 41-16N, lengdegrad: 069-16E, høyde over havet: 489 m

Gjeldene værobservasjon

Denne rapporten ble laget for 31 minutter siden, klokken 18:00 UTC
Vind 6 kt fra Nord
Temperatur 14°C
Luftfuktighet 94%
Trykk 1020 hPa
Sikt 10 km eller mer
Overskyet i en høyde av 1700 ft

METAR: UTTT 241800Z 35006KT 9999 OVC017 14/13 Q1020 R08R/29//50 NOSIG

Tid: 23:31 (18:31 UTC)

Varsel

Denne rapporten ble laget for 1 time og 31 minutter siden, klokken 17:00 UTC
Varsel gyldig fra 24. klokken 18 UTC til 25. klokken 18 UTC
Vind 10 kt fra Nord
Sikt: 7000 m
Få skyer i en høyde av 1000 ft
Spredte skyer i en høyde av 4000 ft, Bygeskyer.
Brutte skyer i en høyde av 10000 ft
Midlertidig
fra 24. klokken 18 UTC til 25. klokken 03 UTC
Sikt: 3000 m
Spredte skyer i en høyde av 700 ft
dis

TAF: UTTT 241700Z 2418/2518 35010KT 7000 FEW010 SCT040CB BKN100 TEMPO 2418/2503 3000 BR SCT007

Værobservasjoner og værvarsel for over 4000 flyplasser (METAR- og TAF-rapporter).

Tilgjengelige stasjoner er representert av de røde og gule prikkene på kartet.

Hold musepekeren over prikken for å se navnet på stasjonen.

Klikk så for å se værobservasjoner og -varsler.

For å forandre kartet kan du klikke på den grønne knappen med svart kryss for å zoome inn, på den grønne knappen med strek for å zoome ut, eller på de grønne pilene for å se tilstøtende kart.


METAR-TAF: